Time;durP1;ratioP1;P1;durP2;ratioP2;P2;SDS_P1;SDS_P2;PMS_P1;PMS_P2;Temp;Humidity;BMP_temperature;BMP_pressure;BME280_temperature;BME280_humidity;BME280_pressure;Samples;Min_cycle;Max_cycle;Signal;HPM_P1;HPM_P2
2022/10/10 00:00:35;;;;;;;1.95;0.95;;;;;;;;;;5035221;28;20094;-40
2022/10/10 00:03:00;;;;;;;3.75;1.38;;;;;;;;;;5035066;28;20105;-40
2022/10/10 00:05:26;;;;;;;5.50;1.52;;;;;;;;;;5035158;28;20034;-40
2022/10/10 00:07:51;;;;;;;1.05;0.93;;;;;;;;;;5035083;28;20021;-40
2022/10/10 00:10:17;;;;;;;4.85;1.50;;;;;;;;;;5035002;28;20037;-40
2022/10/10 00:12:42;;;;;;;4.28;1.20;;;;;;;;;;5034882;28;20019;-40
2022/10/10 00:15:08;;;;;;;2.40;1.08;;;;;;;;;;5034877;28;20128;-40
2022/10/10 00:17:33;;;;;;;1.40;1.10;;;;;;;;;;5034961;28;20049;-41
2022/10/10 00:19:58;;;;;;;1.88;1.50;;;;;;;;;;5034968;28;20385;-40
2022/10/10 00:22:24;;;;;;;2.03;1.50;;;;;;;;;;5034853;28;20021;-40
2022/10/10 00:24:49;;;;;;;3.30;1.83;;;;;;;;;;5034743;28;20448;-40
2022/10/10 00:27:15;;;;;;;2.50;1.60;;;;;;;;;;5034755;28;20439;-41
2022/10/10 00:29:40;;;;;;;4.57;2.83;;;;;;;;;;5033286;28;20087;-40
2022/10/10 00:32:05;;;;;;;8.35;1.17;;;;;;;;;;5034864;28;20112;-41
2022/10/10 00:34:31;;;;;;;2.15;1.13;;;;;;;;;;5034511;28;20038;-41
2022/10/10 00:36:56;;;;;;;1.55;0.90;;;;;;;;;;5034482;28;20088;-40
2022/10/10 00:39:22;;;;;;;2.33;1.52;;;;;;;;;;5034861;28;20029;-40
2022/10/10 00:41:47;;;;;;;2.22;1.40;;;;;;;;;;5034371;28;20084;-41
2022/10/10 00:44:13;;;;;;;2.17;1.55;;;;;;;;;;5034670;28;20037;-41
2022/10/10 00:46:38;;;;;;;2.35;1.83;;;;;;;;;;5034320;28;20080;-40
2022/10/10 00:49:08;;;;;;;2.55;1.13;;;;;;;;;;5034272;28;20456;-40
2022/10/10 00:51:33;;;;;;;4.22;1.65;;;;;;;;;;5034191;28;20025;-41
2022/10/10 00:54:01;;;;;;;2.97;1.73;;;;;;;;;;5034530;28;20034;-40
2022/10/10 00:56:28;;;;;;;2.03;1.55;;;;;;;;;;5034194;28;20029;-41
2022/10/10 00:58:54;;;;;;;1.98;1.27;;;;;;;;;;5034396;28;20037;-40
2022/10/10 01:01:20;;;;;;;2.13;1.15;;;;;;;;;;5034360;28;20173;-40
2022/10/10 01:03:45;;;;;;;2.25;1.42;;;;;;;;;;5033200;28;20033;-41
2022/10/10 01:06:11;;;;;;;2.97;1.52;;;;;;;;;;5034330;28;20029;-40
2022/10/10 01:08:36;;;;;;;1.67;1.10;;;;;;;;;;5034228;28;20044;-41
2022/10/10 01:11:16;;;;;;;3.15;1.60;;;;;;;;;;5033966;28;20053;-40
2022/10/10 01:14:05;;;;;;;2.75;1.13;;;;;;;;;;5033774;28;20631;-40
2022/10/10 01:16:49;;;;;;;5.32;1.73;;;;;;;;;;5003115;28;20055;-41
2022/10/10 01:19:17;;;;;;;2.42;1.63;;;;;;;;;;5033813;28;20033;-41
2022/10/10 01:21:52;;;;;;;1.35;1.25;;;;;;;;;;5033578;28;20032;-40
2022/10/10 01:24:29;;;;;;;3.58;1.33;;;;;;;;;;5033746;28;20089;-40
2022/10/10 01:27:13;;;;;;;4.68;2.97;;;;;;;;;;5033564;28;20037;-40
2022/10/10 01:29:44;;;;;;;2.35;1.70;;;;;;;;;;5033576;28;20033;-40
2022/10/10 01:32:14;;;;;;;2.40;1.20;;;;;;;;;;5033846;28;20112;-40
2022/10/10 01:34:47;;;;;;;2.35;1.67;;;;;;;;;;5033409;28;20045;-41
2022/10/10 01:37:20;;;;;;;2.47;1.85;;;;;;;;;;5033297;28;20054;-40
2022/10/10 01:39:58;;;;;;;3.15;1.63;;;;;;;;;;5033315;28;20518;-40
2022/10/10 01:42:27;;;;;;;2.58;1.80;;;;;;;;;;5033592;28;20491;-40
2022/10/10 01:44:53;;;;;;;2.03;1.27;;;;;;;;;;5033527;28;20350;-41
2022/10/10 01:47:20;;;;;;;3.25;1.75;;;;;;;;;;5033561;28;20052;-41
2022/10/10 01:49:45;;;;;;;0.93;0.85;;;;;;;;;;5033050;28;20092;-41
2022/10/10 01:52:30;;;;;;;3.35;1.70;;;;;;;;;;5033199;28;20120;-40
2022/10/10 01:55:09;;;;;;;2.55;2.17;;;;;;;;;;5033367;28;20083;-41
2022/10/10 01:57:55;;;;;;;2.15;1.48;;;;;;;;;;5033011;28;20044;-41
2022/10/10 02:00:21;;;;;;;1.77;1.48;;;;;;;;;;5033108;28;20041;-40
2022/10/10 02:02:55;;;;;;;2.90;1.65;;;;;;;;;;5033099;28;20031;-40
2022/10/10 02:05:39;;;;;;;2.70;1.50;;;;;;;;;;5033009;28;20036;-40
2022/10/10 02:08:18;;;;;;;1.10;0.98;;;;;;;;;;5033158;28;20167;-41
2022/10/10 02:10:46;;;;;;;2.00;1.02;;;;;;;;;;5032895;28;20076;-41
2022/10/10 02:13:12;;;;;;;1.60;0.95;;;;;;;;;;5032876;28;20093;-40
2022/10/10 02:15:43;;;;;;;2.13;1.58;;;;;;;;;;5032626;28;20077;-40
2022/10/10 02:18:09;;;;;;;1.27;0.85;;;;;;;;;;5032960;28;20025;-40
2022/10/10 02:20:35;;;;;;;2.75;1.50;;;;;;;;;;5032747;28;20048;-41
2022/10/10 02:23:00;;;;;;;1.13;0.88;;;;;;;;;;5032907;28;20037;-41
2022/10/10 02:25:27;;;;;;;3.78;1.08;;;;;;;;;;5032588;28;20110;-40
2022/10/10 02:28:22;;;;;;;4.45;1.65;;;;;;;;;;5032744;28;20044;-40
2022/10/10 02:30:48;;;;;;;2.47;0.80;;;;;;;;;;4944479;28;20052;-41
2022/10/10 02:33:18;;;;;;;2.05;1.83;;;;;;;;;;5032501;28;20028;-40
2022/10/10 02:35:44;;;;;;;1.65;0.98;;;;;;;;;;5032194;28;20049;-40
2022/10/10 02:38:11;;;;;;;1.67;1.00;;;;;;;;;;5032155;28;20037;-40
2022/10/10 02:40:37;;;;;;;5.47;1.42;;;;;;;;;;5032384;28;20132;-40
2022/10/10 02:43:04;;;;;;;5.80;0.93;;;;;;;;;;5032499;28;20096;-41
2022/10/10 02:45:32;;;;;;;2.10;1.45;;;;;;;;;;5032169;28;20038;-40
2022/10/10 02:47:57;;;;;;;1.42;0.90;;;;;;;;;;5032414;28;20340;-40
2022/10/10 02:50:23;;;;;;;3.50;1.60;;;;;;;;;;5032077;28;20043;-40
2022/10/10 02:52:48;;;;;;;1.92;1.50;;;;;;;;;;5031916;28;20025;-40
2022/10/10 02:55:13;;;;;;;2.10;1.33;;;;;;;;;;5032252;28;20065;-40
2022/10/10 02:57:39;;;;;;;1.98;1.45;;;;;;;;;;5031890;28;20420;-40
2022/10/10 03:00:05;;;;;;;1.92;1.33;;;;;;;;;;5031846;28;20103;-40
2022/10/10 03:02:30;;;;;;;2.08;0.98;;;;;;;;;;5031896;28;20067;-40
2022/10/10 03:04:57;;;;;;;4.55;1.20;;;;;;;;;;5031803;28;20041;-40
2022/10/10 03:07:22;;;;;;;6.95;1.90;;;;;;;;;;5031731;28;20067;-41
2022/10/10 03:09:48;;;;;;;3.00;1.17;;;;;;;;;;5031727;28;20029;-40
2022/10/10 03:12:13;;;;;;;3.08;2.17;;;;;;;;;;5013979;28;20018;-40
2022/10/10 03:14:38;;;;;;;4.43;1.13;;;;;;;;;;5031550;28;20037;-41
2022/10/10 03:17:04;;;;;;;1.27;0.90;;;;;;;;;;5031532;28;20529;-40
2022/10/10 03:19:29;;;;;;;1.75;1.30;;;;;;;;;;5031649;28;20036;-40
2022/10/10 03:21:54;;;;;;;2.67;1.42;;;;;;;;;;5031425;28;20388;-40
2022/10/10 03:24:20;;;;;;;4.40;1.50;;;;;;;;;;5031545;28;20053;-40
2022/10/10 03:26:45;;;;;;;2.38;1.73;;;;;;;;;;5030888;28;20056;-41
2022/10/10 03:29:10;;;;;;;3.72;1.40;;;;;;;;;;5031431;28;20025;-40
2022/10/10 03:31:36;;;;;;;2.42;1.45;;;;;;;;;;5031552;28;20056;-40
2022/10/10 03:34:01;;;;;;;1.55;0.90;;;;;;;;;;5031467;28;20118;-40
2022/10/10 03:36:27;;;;;;;3.17;1.00;;;;;;;;;;5031162;28;20049;-41
2022/10/10 03:38:52;;;;;;;2.95;1.20;;;;;;;;;;5031323;28;20112;-41
2022/10/10 03:41:18;;;;;;;3.03;1.30;;;;;;;;;;5031210;28;20116;-40
2022/10/10 03:43:43;;;;;;;2.58;1.52;;;;;;;;;;5031444;28;20030;-40
2022/10/10 03:46:08;;;;;;;2.13;1.80;;;;;;;;;;5013597;28;20018;-40
2022/10/10 03:48:34;;;;;;;1.10;0.95;;;;;;;;;;5031142;28;20048;-40
2022/10/10 03:50:59;;;;;;;1.73;1.48;;;;;;;;;;5031151;28;20025;-40
2022/10/10 03:53:25;;;;;;;1.70;1.20;;;;;;;;;;5031201;28;20021;-40
2022/10/10 03:55:51;;;;;;;1.73;1.15;;;;;;;;;;5031010;28;20475;-40
2022/10/10 03:58:17;;;;;;;1.92;1.10;;;;;;;;;;5031338;28;20396;-40
2022/10/10 04:00:42;;;;;;;1.88;1.48;;;;;;;;;;5031262;28;20018;-40
2022/10/10 04:03:08;;;;;;;2.47;0.95;;;;;;;;;;5031127;28;20049;-40
2022/10/10 04:05:36;;;;;;;2.13;1.42;;;;;;;;;;5030974;28;20361;-40
2022/10/10 04:08:02;;;;;;;1.38;1.20;;;;;;;;;;5031368;28;20451;-40
2022/10/10 04:10:28;;;;;;;2.33;1.42;;;;;;;;;;5030923;28;20017;-40
2022/10/10 04:12:53;;;;;;;4.45;1.20;;;;;;;;;;5013217;28;20039;-40
2022/10/10 04:15:18;;;;;;;1.15;1.00;;;;;;;;;;5030929;28;20354;-40
2022/10/10 04:17:44;;;;;;;2.08;1.35;;;;;;;;;;5030842;28;20033;-40
2022/10/10 04:20:09;;;;;;;2.70;1.38;;;;;;;;;;5030924;28;20024;-40
2022/10/10 04:22:35;;;;;;;1.83;1.23;;;;;;;;;;5030789;28;20099;-41
2022/10/10 04:25:00;;;;;;;5.35;1.58;;;;;;;;;;5030862;28;20021;-40
2022/10/10 04:27:25;;;;;;;1.90;1.15;;;;;;;;;;5030866;28;20040;-40
2022/10/10 04:29:51;;;;;;;2.00;1.48;;;;;;;;;;5030817;28;20018;-40
2022/10/10 04:32:16;;;;;;;3.28;1.55;;;;;;;;;;5030864;28;20029;-41
2022/10/10 04:34:42;;;;;;;3.17;1.50;;;;;;;;;;5031044;28;20379;-40
2022/10/10 04:37:07;;;;;;;6.63;1.77;;;;;;;;;;5030591;28;20053;-41
2022/10/10 04:39:32;;;;;;;3.03;1.35;;;;;;;;;;5034485;28;20396;-40
2022/10/10 04:41:58;;;;;;;1.80;1.10;;;;;;;;;;5034445;28;20037;-42
2022/10/10 04:44:23;;;;;;;3.88;1.50;;;;;;;;;;5034566;28;20013;-40
2022/10/10 04:46:48;;;;;;;3.25;1.60;;;;;;;;;;5034589;28;20112;-41
2022/10/10 04:49:14;;;;;;;2.35;1.25;;;;;;;;;;5034681;28;20040;-41
2022/10/10 04:51:39;;;;;;;1.90;1.30;;;;;;;;;;5034256;28;20098;-40
2022/10/10 04:54:05;;;;;;;2.88;1.48;;;;;;;;;;5032963;28;20028;-40
2022/10/10 04:56:31;;;;;;;1.83;1.30;;;;;;;;;;5034458;28;20041;-40
2022/10/10 04:58:57;;;;;;;2.10;1.48;;;;;;;;;;5034210;28;20101;-40
2022/10/10 05:01:22;;;;;;;1.90;1.00;;;;;;;;;;5033963;28;20103;-40
2022/10/10 05:03:47;;;;;;;2.25;1.20;;;;;;;;;;5034326;28;20464;-40
2022/10/10 05:06:13;;;;;;;1.58;1.48;;;;;;;;;;5034065;28;20357;-40
2022/10/10 05:08:38;;;;;;;2.08;1.52;;;;;;;;;;5033955;28;20072;-40
2022/10/10 05:11:04;;;;;;;3.35;1.15;;;;;;;;;;5034019;28;20120;-40
2022/10/10 05:13:29;;;;;;;2.70;1.15;;;;;;;;;;5034174;28;20025;-41
2022/10/10 05:15:54;;;;;;;4.32;1.58;;;;;;;;;;5033994;28;20765;-41
2022/10/10 05:18:20;;;;;;;2.00;1.40;;;;;;;;;;5034175;28;20041;-40
2022/10/10 05:20:49;;;;;;;3.50;1.63;;;;;;;;;;5033918;28;20033;-40
2022/10/10 05:23:14;;;;;;;2.53;1.00;;;;;;;;;;5033764;28;20013;-40
2022/10/10 05:25:44;;;;;;;1.25;1.15;;;;;;;;;;5015951;28;20032;-40
2022/10/10 05:28:10;;;;;;;2.10;1.13;;;;;;;;;;5033741;28;20029;-40
2022/10/10 05:30:35;;;;;;;4.75;1.65;;;;;;;;;;5033359;28;20029;-40
2022/10/10 05:33:01;;;;;;;3.83;1.63;;;;;;;;;;5033665;28;20024;-40
2022/10/10 05:35:26;;;;;;;5.60;1.40;;;;;;;;;;5033584;28;20029;-40
2022/10/10 05:37:51;;;;;;;1.92;1.20;;;;;;;;;;5033152;28;20551;-41
2022/10/10 05:40:17;;;;;;;1.20;0.95;;;;;;;;;;5033487;28;20030;-41
2022/10/10 05:42:42;;;;;;;3.33;1.40;;;;;;;;;;5033612;28;20063;-40
2022/10/10 05:45:08;;;;;;;2.28;1.30;;;;;;;;;;5033243;28;20439;-40
2022/10/10 05:47:33;;;;;;;2.30;1.40;;;;;;;;;;5033409;28;20064;-40
2022/10/10 05:49:59;;;;;;;1.73;0.88;;;;;;;;;;5032635;28;20087;-40
2022/10/10 05:52:24;;;;;;;2.60;1.20;;;;;;;;;;5015391;28;20033;-40
2022/10/10 05:54:49;;;;;;;2.50;1.42;;;;;;;;;;5033357;28;20017;-40
2022/10/10 05:57:15;;;;;;;3.42;1.42;;;;;;;;;;5033081;28;20100;-40
2022/10/10 05:59:40;;;;;;;2.13;1.05;;;;;;;;;;5033033;28;20033;-40
2022/10/10 06:02:06;;;;;;;4.65;1.90;;;;;;;;;;5032994;28;20063;-40
2022/10/10 06:04:31;;;;;;;3.83;1.17;;;;;;;;;;5033219;28;20074;-40
2022/10/10 06:06:57;;;;;;;3.63;1.63;;;;;;;;;;5032853;28;20580;-40
2022/10/10 06:09:22;;;;;;;4.22;1.63;;;;;;;;;;5032800;28;20105;-41
2022/10/10 06:11:48;;;;;;;3.22;1.48;;;;;;;;;;5032734;28;20025;-41
2022/10/10 06:14:13;;;;;;;3.22;1.33;;;;;;;;;;5015215;28;20037;-40
2022/10/10 06:16:39;;;;;;;5.25;2.97;;;;;;;;;;5032838;28;20119;-40
2022/10/10 06:19:05;;;;;;;1.95;1.10;;;;;;;;;;5032743;28;20057;-40
2022/10/10 06:21:30;;;;;;;5.20;1.75;;;;;;;;;;5032658;28;20465;-40
2022/10/10 06:23:56;;;;;;;4.63;1.95;;;;;;;;;;5032521;28;20033;-40
2022/10/10 06:26:21;;;;;;;3.30;2.03;;;;;;;;;;5032868;28;20028;-40
2022/10/10 06:28:49;;;;;;;2.17;1.40;;;;;;;;;;5032693;28;20454;-40
2022/10/10 06:31:15;;;;;;;2.80;1.50;;;;;;;;;;5032556;28;20022;-40
2022/10/10 06:33:48;;;;;;;2.17;1.50;;;;;;;;;;5032516;28;20052;-40
2022/10/10 06:36:14;;;;;;;3.30;1.75;;;;;;;;;;5032398;28;20428;-41
2022/10/10 06:38:41;;;;;;;4.05;1.65;;;;;;;;;;5032318;28;20039;-40
2022/10/10 06:41:06;;;;;;;4.18;2.42;;;;;;;;;;5032248;28;20033;-41
2022/10/10 06:43:32;;;;;;;3.65;1.67;;;;;;;;;;5032541;28;20025;-41
2022/10/10 06:45:57;;;;;;;2.00;1.67;;;;;;;;;;5032132;28;20415;-40
2022/10/10 06:48:23;;;;;;;3.22;2.05;;;;;;;;;;5032115;28;20100;-40
2022/10/10 06:51:14;;;;;;;2.20;1.63;;;;;;;;;;5032080;28;20150;-41
2022/10/10 06:53:40;;;;;;;3.08;1.63;;;;;;;;;;5027299;28;20043;-40
2022/10/10 06:56:06;;;;;;;3.00;2.17;;;;;;;;;;5032185;28;20108;-40
2022/10/10 06:58:31;;;;;;;3.53;1.98;;;;;;;;;;5031991;28;20025;-40
2022/10/10 07:00:58;;;;;;;3.15;2.53;;;;;;;;;;5031675;28;20029;-41
2022/10/10 07:03:23;;;;;;;2.42;1.63;;;;;;;;;;5031530;28;20026;-40
2022/10/10 07:05:53;;;;;;;3.13;2.17;;;;;;;;;;5032088;28;20028;-40
2022/10/10 07:08:19;;;;;;;4.05;2.70;;;;;;;;;;5031735;28;20022;-40
2022/10/10 07:10:45;;;;;;;3.38;2.35;;;;;;;;;;5031719;28;20036;-40
2022/10/10 07:13:10;;;;;;;5.93;2.50;;;;;;;;;;5032015;28;20037;-41
2022/10/10 07:15:35;;;;;;;5.13;2.33;;;;;;;;;;5031456;28;20140;-40
2022/10/10 07:18:01;;;;;;;2.53;1.83;;;;;;;;;;5031614;28;20069;-41
2022/10/10 07:20:26;;;;;;;2.70;1.55;;;;;;;;;;5031511;28;20050;-41
2022/10/10 07:22:52;;;;;;;3.80;1.90;;;;;;;;;;5031491;28;20040;-41
2022/10/10 07:25:17;;;;;;;5.43;2.60;;;;;;;;;;5031838;28;20013;-40
2022/10/10 07:27:43;;;;;;;3.97;2.30;;;;;;;;;;5031426;28;20495;-40
2022/10/10 07:30:08;;;;;;;4.65;2.63;;;;;;;;;;5031415;28;20109;-40
2022/10/10 07:32:34;;;;;;;3.05;1.95;;;;;;;;;;5031780;28;20075;-41
2022/10/10 07:34:59;;;;;;;3.72;2.30;;;;;;;;;;5031300;28;20499;-40
2022/10/10 07:37:25;;;;;;;5.53;2.90;;;;;;;;;;5010218;28;20057;-43
2022/10/10 07:39:53;;;;;;;2.88;2.20;;;;;;;;;;5011858;28;20084;-40
2022/10/10 07:42:19;;;;;;;5.63;2.47;;;;;;;;;;5010348;28;20080;-40
2022/10/10 07:44:44;;;;;;;8.52;2.60;;;;;;;;;;5011516;28;20045;-40
2022/10/10 07:47:09;;;;;;;2.67;1.80;;;;;;;;;;5011868;28;20117;-40
2022/10/10 07:49:35;;;;;;;3.33;2.08;;;;;;;;;;5011594;28;20464;-40
2022/10/10 07:52:00;;;;;;;3.85;2.17;;;;;;;;;;5011368;28;20044;-41
2022/10/10 07:54:26;;;;;;;2.95;1.73;;;;;;;;;;5011567;28;20045;-41
2022/10/10 07:56:51;;;;;;;3.67;2.00;;;;;;;;;;5011297;28;20052;-41
2022/10/10 07:59:17;;;;;;;2.53;1.95;;;;;;;;;;5011671;28;20105;-40
2022/10/10 08:01:42;;;;;;;3.38;2.33;;;;;;;;;;5011345;28;20025;-40
2022/10/10 08:04:07;;;;;;;5.13;2.17;;;;;;;;;;5011776;28;20416;-41
2022/10/10 08:06:33;;;;;;;5.35;1.88;;;;;;;;;;5011354;28;20041;-41
2022/10/10 08:08:58;;;;;;;3.88;1.80;;;;;;;;;;5011317;28;20017;-40
2022/10/10 08:11:23;;;;;;;2.78;1.90;;;;;;;;;;5011384;28;20042;-40
2022/10/10 08:13:49;;;;;;;1.83;1.08;;;;;;;;;;5013982;28;20037;-42
2022/10/10 08:16:15;;;;;;;3.78;2.20;;;;;;;;;;5015512;28;20045;-41
2022/10/10 08:18:40;;;;;;;1.83;1.45;;;;;;;;;;5015230;28;20021;-41
2022/10/10 08:21:07;;;;;;;4.47;2.15;;;;;;;;;;5015180;28;20091;-40
2022/10/10 08:23:33;;;;;;;4.70;2.13;;;;;;;;;;5015163;28;20048;-40
2022/10/10 08:25:58;;;;;;;2.22;1.75;;;;;;;;;;5013853;28;20030;-41
2022/10/10 08:28:24;;;;;;;4.07;2.10;;;;;;;;;;5015316;28;20054;-41
2022/10/10 08:30:50;;;;;;;2.35;1.52;;;;;;;;;;5013700;28;20488;-40
2022/10/10 08:33:15;;;;;;;2.53;1.63;;;;;;;;;;5030576;28;20025;-40
2022/10/10 08:35:40;;;;;;;1.67;1.15;;;;;;;;;;5014739;28;20500;-40
2022/10/10 08:38:06;;;;;;;2.80;2.10;;;;;;;;;;5033444;28;20045;-40
2022/10/10 08:40:32;;;;;;;2.53;1.70;;;;;;;;;;5034608;28;20491;-41
2022/10/10 08:43:02;;;;;;;4.75;1.88;;;;;;;;;;5034444;28;20051;-41
2022/10/10 08:45:28;;;;;;;2.50;1.70;;;;;;;;;;5034770;28;20018;-40
2022/10/10 08:47:56;;;;;;;3.47;1.73;;;;;;;;;;5034659;28;20031;-40
2022/10/10 08:50:25;;;;;;;6.25;2.88;;;;;;;;;;5034659;28;20162;-40
2022/10/10 08:52:53;;;;;;;3.15;1.70;;;;;;;;;;5034306;28;20479;-40
2022/10/10 08:55:19;;;;;;;3.08;2.25;;;;;;;;;;5034408;28;20044;-40
2022/10/10 08:57:47;;;;;;;3.85;2.30;;;;;;;;;;5034404;28;20035;-40
2022/10/10 09:00:17;;;;;;;3.47;2.28;;;;;;;;;;5034207;28;20527;-40
2022/10/10 09:02:48;;;;;;;5.28;2.20;;;;;;;;;;5033982;28;20488;-40
2022/10/10 09:05:17;;;;;;;4.18;3.03;;;;;;;;;;5034382;28;20029;-39
2022/10/10 09:07:53;;;;;;;5.72;2.40;;;;;;;;;;5034023;28;20045;-39
2022/10/10 09:10:27;;;;;;;5.18;2.97;;;;;;;;;;5033876;28;20029;-40
2022/10/10 09:12:55;;;;;;;8.35;2.95;;;;;;;;;;5033911;28;20121;-40
2022/10/10 09:15:27;;;;;;;7.53;2.72;;;;;;;;;;5033886;28;20014;-40
2022/10/10 09:18:11;;;;;;;7.55;3.47;;;;;;;;;;5033702;28;20029;-40
2022/10/10 09:20:55;;;;;;;5.00;3.00;;;;;;;;;;5033875;28;20025;-40
2022/10/10 09:23:24;;;;;;;5.57;2.97;;;;;;;;;;5034062;28;20117;-40
2022/10/10 09:26:04;;;;;;;6.20;3.50;;;;;;;;;;5032637;28;20376;-40
2022/10/10 09:28:43;;;;;;;7.88;2.92;;;;;;;;;;5033756;28;20029;-40
2022/10/10 09:31:17;;;;;;;8.43;3.58;;;;;;;;;;5033797;28;20029;-40
2022/10/10 09:33:54;;;;;;;9.38;4.82;;;;;;;;;;5033789;28;20036;-40
2022/10/10 09:36:22;;;;;;;8.77;4.25;;;;;;;;;;5033330;28;20057;-40
2022/10/10 09:38:48;;;;;;;4.53;3.38;;;;;;;;;;5015686;28;20480;-40
2022/10/10 09:41:19;;;;;;;5.70;3.28;;;;;;;;;;5033495;28;20040;-40
2022/10/10 09:43:45;;;;;;;6.72;4.25;;;;;;;;;;5033307;28;20037;-40
2022/10/10 09:46:10;;;;;;;7.30;3.60;;;;;;;;;;5033560;28;20018;-40
2022/10/10 09:48:40;;;;;;;7.40;3.92;;;;;;;;;;5033334;28;20121;-40
2022/10/10 09:51:07;;;;;;;5.05;3.47;;;;;;;;;;5033469;28;20063;-40
2022/10/10 09:53:33;;;;;;;4.53;3.00;;;;;;;;;;5033433;28;20124;-40
2022/10/10 09:55:59;;;;;;;7.35;3.63;;;;;;;;;;5033090;28;20108;-40
2022/10/10 09:58:32;;;;;;;10.18;4.72;;;;;;;;;;5033472;28;20022;-40
2022/10/10 10:01:10;;;;;;;6.03;4.63;;;;;;;;;;5033194;28;20126;-40
2022/10/10 10:03:36;;;;;;;5.18;3.47;;;;;;;;;;5033056;28;20037;-40
2022/10/10 10:06:01;;;;;;;10.80;4.60;;;;;;;;;;5033014;28;20029;-40
2022/10/10 10:08:31;;;;;;;8.43;4.03;;;;;;;;;;5032882;28;20043;-40
2022/10/10 10:10:57;;;;;;;7.97;4.45;;;;;;;;;;5032778;28;20029;-41
2022/10/10 10:13:27;;;;;;;6.45;4.72;;;;;;;;;;5032823;28;20373;-40
2022/10/10 10:15:57;;;;;;;9.95;4.57;;;;;;;;;;5032926;28;20037;-40
2022/10/10 10:18:26;;;;;;;8.18;4.15;;;;;;;;;;5032799;28;20076;-40
2022/10/10 10:21:00;;;;;;;7.57;3.88;;;;;;;;;;5032610;28;20033;-40
2022/10/10 10:23:26;;;;;;;4.13;3.47;;;;;;;;;;5032635;28;20033;-40
2022/10/10 10:25:58;;;;;;;5.28;4.07;;;;;;;;;;5032587;28;20041;-40
2022/10/10 10:28:23;;;;;;;7.10;4.82;;;;;;;;;;5032605;28;20067;-40
2022/10/10 10:30:51;;;;;;;14.43;4.53;;;;;;;;;;5032392;28;20057;-40
2022/10/10 10:33:36;;;;;;;9.93;5.13;;;;;;;;;;5014807;28;20112;-40
2022/10/10 10:36:01;;;;;;;7.82;4.07;;;;;;;;;;5031958;28;20395;-40
2022/10/10 10:38:27;;;;;;;5.70;4.60;;;;;;;;;;5032415;28;20029;-41
2022/10/10 10:40:52;;;;;;;7.72;4.13;;;;;;;;;;5032176;28;20065;-40
2022/10/10 10:43:23;;;;;;;7.95;5.07;;;;;;;;;;5032204;28;20009;-40
2022/10/10 10:46:08;;;;;;;7.03;3.42;;;;;;;;;;5032203;28;20057;-40
2022/10/10 10:48:47;;;;;;;6.93;4.25;;;;;;;;;;5032286;28;20095;-42
2022/10/10 10:51:15;;;;;;;5.93;4.00;;;;;;;;;;5032035;28;20108;-40
2022/10/10 10:54:03;;;;;;;9.57;4.82;;;;;;;;;;5032094;28;20026;-40
2022/10/10 10:56:41;;;;;;;5.63;4.38;;;;;;;;;;4985707;28;20064;-40
2022/10/10 10:59:06;;;;;;;8.48;4.35;;;;;;;;;;5014558;28;20122;-43
2022/10/10 11:01:40;;;;;;;8.90;4.93;;;;;;;;;;5031962;28;20045;-40
2022/10/10 11:04:20;;;;;;;5.93;3.42;;;;;;;;;;5031830;28;20127;-40
2022/10/10 11:06:58;;;;;;;8.73;4.80;;;;;;;;;;5031781;28;20538;-40
2022/10/10 11:09:27;;;;;;;7.38;4.63;;;;;;;;;;5031795;28;20060;-39
2022/10/10 11:11:52;;;;;;;7.88;4.72;;;;;;;;;;5031616;28;20022;-40
2022/10/10 11:14:20;;;;;;;7.40;4.18;;;;;;;;;;5031694;28;20029;-41
2022/10/10 11:17:06;;;;;;;8.77;4.10;;;;;;;;;;5031575;28;20029;-40
2022/10/10 11:19:36;;;;;;;9.25;4.32;;;;;;;;;;5030954;28;20507;-40
2022/10/10 11:22:01;;;;;;;6.85;4.18;;;;;;;;;;5031812;28;20053;-40
2022/10/10 11:24:29;;;;;;;5.90;3.65;;;;;;;;;;5031534;28;20072;-40
2022/10/10 11:26:58;;;;;;;8.63;4.80;;;;;;;;;;5031455;28;20052;-40
2022/10/10 11:29:26;;;;;;;6.65;4.18;;;;;;;;;;5031484;28;20070;-40
2022/10/10 11:31:58;;;;;;;8.35;3.70;;;;;;;;;;5031590;28;20465;-40
2022/10/10 11:34:28;;;;;;;7.40;5.13;;;;;;;;;;5031455;28;20067;-40
2022/10/10 11:36:59;;;;;;;7.32;4.10;;;;;;;;;;5031240;28;20056;-40
2022/10/10 11:39:47;;;;;;;5.00;3.30;;;;;;;;;;5031341;28;20052;-40
2022/10/10 11:42:18;;;;;;;8.65;4.28;;;;;;;;;;5017968;28;20117;-40
2022/10/10 11:44:50;;;;;;;6.97;4.03;;;;;;;;;;5030122;28;20235;-41
2022/10/10 11:47:22;;;;;;;6.63;3.92;;;;;;;;;;5031065;28;20116;-40
2022/10/10 11:49:54;;;;;;;6.68;4.25;;;;;;;;;;5031161;28;20029;-40
2022/10/10 11:52:45;;;;;;;4.38;3.05;;;;;;;;;;5031501;28;20029;-40
2022/10/10 11:55:30;;;;;;;9.32;3.92;;;;;;;;;;5031186;28;20033;-40
2022/10/10 11:57:58;;;;;;;6.00;3.10;;;;;;;;;;5031115;28;20515;-40
2022/10/10 12:00:24;;;;;;;6.10;3.97;;;;;;;;;;5031011;28;20021;-40
2022/10/10 12:02:50;;;;;;;7.15;4.68;;;;;;;;;;5031234;28;20491;-39
2022/10/10 12:05:18;;;;;;;8.07;4.63;;;;;;;;;;5031166;28;20021;-40
2022/10/10 12:07:56;;;;;;;6.22;3.22;;;;;;;;;;5031309;28;20494;-40
2022/10/10 12:10:25;;;;;;;8.85;4.75;;;;;;;;;;5031063;28;20035;-40
2022/10/10 12:12:52;;;;;;;8.32;3.60;;;;;;;;;;5030892;28;20014;-39
2022/10/10 12:15:28;;;;;;;6.30;4.07;;;;;;;;;;5031290;28;20033;-40
2022/10/10 12:17:54;;;;;;;11.25;4.55;;;;;;;;;;5031047;28;20072;-40
2022/10/10 12:20:20;;;;;;;6.85;3.80;;;;;;;;;;5030904;28;20021;-40
2022/10/10 12:23:05;;;;;;;6.45;4.20;;;;;;;;;;5030832;28;20029;-41
2022/10/10 12:25:41;;;;;;;7.05;3.72;;;;;;;;;;5030793;28;20472;-40
2022/10/10 12:28:12;;;;;;;7.03;3.92;;;;;;;;;;5031209;28;20030;-40
2022/10/10 12:30:58;;;;;;;9.07;4.55;;;;;;;;;;5030780;28;20400;-40
2022/10/10 12:33:32;;;;;;;6.85;3.22;;;;;;;;;;4980495;28;20038;-40
2022/10/10 12:36:18;;;;;;;4.82;3.45;;;;;;;;;;5030553;28;20037;-40
2022/10/10 12:39:06;;;;;;;7.03;3.60;;;;;;;;;;4980131;28;20083;-40
2022/10/10 12:41:52;;;;;;;7.97;5.78;;;;;;;;;;5030752;28;20032;-40
2022/10/10 12:44:17;;;;;;;7.15;4.40;;;;;;;;;;5030252;28;20042;-40
2022/10/10 12:46:43;;;;;;;7.10;4.00;;;;;;;;;;5030745;28;20029;-40
2022/10/10 12:49:15;;;;;;;6.78;4.03;;;;;;;;;;5031036;28;20032;-40
2022/10/10 12:51:42;;;;;;;6.55;4.70;;;;;;;;;;5030611;28;20025;-40
2022/10/10 12:54:15;;;;;;;6.95;3.88;;;;;;;;;;5030600;28;20067;-40
2022/10/10 12:56:42;;;;;;;7.55;4.07;;;;;;;;;;5012761;28;20454;-42
2022/10/10 12:59:18;;;;;;;6.75;4.00;;;;;;;;;;5030638;28;20060;-40
2022/10/10 13:01:48;;;;;;;6.07;4.05;;;;;;;;;;5034056;28;20030;-40
2022/10/10 13:04:15;;;;;;;7.20;4.00;;;;;;;;;;5034154;28;20074;-40
2022/10/10 13:06:42;;;;;;;10.57;4.57;;;;;;;;;;5034094;28;20038;-40
2022/10/10 13:09:10;;;;;;;8.25;4.68;;;;;;;;;;5034104;28;20093;-40
2022/10/10 13:11:55;;;;;;;11.10;5.07;;;;;;;;;;5033904;28;20048;-40
2022/10/10 13:14:21;;;;;;;6.72;4.35;;;;;;;;;;5033944;28;20410;-40
2022/10/10 13:16:47;;;;;;;5.80;4.13;;;;;;;;;;5034042;28;20033;-40
2022/10/10 13:19:22;;;;;;;7.15;3.83;;;;;;;;;;5033926;28;20029;-40
2022/10/10 13:21:49;;;;;;;5.00;3.92;;;;;;;;;;5033837;28;20056;-40
2022/10/10 13:24:17;;;;;;;8.10;4.93;;;;;;;;;;5033817;28;20025;-40
2022/10/10 13:26:44;;;;;;;6.18;4.28;;;;;;;;;;5033612;28;20108;-40
2022/10/10 13:29:30;;;;;;;11.65;5.13;;;;;;;;;;5033725;28;20021;-41
2022/10/10 13:32:15;;;;;;;7.85;5.07;;;;;;;;;;5032886;28;20495;-40
2022/10/10 13:34:46;;;;;;;12.40;4.97;;;;;;;;;;5033558;28;20468;-40
2022/10/10 13:37:16;;;;;;;12.32;5.50;;;;;;;;;;5033384;28;20060;-40
2022/10/10 13:39:42;;;;;;;11.52;4.50;;;;;;;;;;5033901;28;20029;-41
2022/10/10 13:42:26;;;;;;;7.35;4.60;;;;;;;;;;5033667;28;20033;-40
2022/10/10 13:44:53;;;;;;;8.32;4.80;;;;;;;;;;5033365;28;20033;-40
2022/10/10 13:47:37;;;;;;;6.90;5.05;;;;;;;;;;5033321;28;20018;-40
2022/10/10 13:50:16;;;;;;;10.48;4.60;;;;;;;;;;5033141;28;20626;-40
2022/10/10 13:52:42;;;;;;;7.50;4.47;;;;;;;;;;5033549;28;20033;-40
2022/10/10 13:55:21;;;;;;;7.78;4.53;;;;;;;;;;5033223;28;20115;-40
2022/10/10 13:57:49;;;;;;;6.88;4.53;;;;;;;;;;5033114;28;20159;-40
2022/10/10 14:00:17;;;;;;;7.28;4.90;;;;;;;;;;5033015;28;20116;-40
2022/10/10 14:02:44;;;;;;;5.90;3.97;;;;;;;;;;5032973;28;20088;-40
2022/10/10 14:05:36;;;;;;;7.80;4.70;;;;;;;;;;5033057;28;20013;-41
2022/10/10 14:08:02;;;;;;;6.50;4.57;;;;;;;;;;5010767;28;20037;-41
2022/10/10 14:10:32;;;;;;;12.40;4.53;;;;;;;;;;5032344;28;20033;-41
2022/10/10 14:12:58;;;;;;;9.13;5.07;;;;;;;;;;5032816;28;20104;-41
2022/10/10 14:15:29;;;;;;;7.57;4.90;;;;;;;;;;5032901;28;20017;-41
2022/10/10 14:17:55;;;;;;;7.47;4.93;;;;;;;;;;5032727;28;20046;-41
2022/10/10 14:20:20;;;;;;;6.22;3.97;;;;;;;;;;5032780;28;20029;-41
2022/10/10 14:22:46;;;;;;;7.43;4.68;;;;;;;;;;5014889;28;20104;-41
2022/10/10 14:25:11;;;;;;;8.13;4.72;;;;;;;;;;5032887;28;20479;-41
2022/10/10 14:27:38;;;;;;;13.43;5.30;;;;;;;;;;5032683;28;20542;-41
2022/10/10 14:30:04;;;;;;;7.97;4.57;;;;;;;;;;5032370;28;20021;-41
2022/10/10 14:32:30;;;;;;;10.40;5.90;;;;;;;;;;5032752;28;20026;-40
2022/10/10 14:34:55;;;;;;;11.43;6.00;;;;;;;;;;5032395;28;20357;-40
2022/10/10 14:37:23;;;;;;;9.98;5.40;;;;;;;;;;5032328;28;20053;-41
2022/10/10 14:39:48;;;;;;;10.30;5.47;;;;;;;;;;5032126;28;20464;-41
2022/10/10 14:42:14;;;;;;;10.57;5.70;;;;;;;;;;5032686;28;20068;-41
2022/10/10 14:44:40;;;;;;;10.55;5.75;;;;;;;;;;5032151;28;20395;-41
2022/10/10 14:47:06;;;;;;;8.32;4.32;;;;;;;;;;5032143;28;20095;-41
2022/10/10 14:49:31;;;;;;;8.98;5.70;;;;;;;;;;5032318;28;20087;-41
2022/10/10 14:51:56;;;;;;;7.07;5.68;;;;;;;;;;5031982;28;20087;-41